Aurora Springs, Missouri
Current Conditions -  °F | °C
As of 9:55 AM on Monday 24 Nov 2014 (Local Time) from KAIZ Reporting Station
Scattered Clouds Scattered Clouds  
Wind Chill: 30°   Ceiling: Unl
Heat Index: 39°   Visibility: 10mi
Dew Point: 25°   Wind: 16mph
Humidity: 56%   Direction: 260°W
Pressure: 29.71"   Gusts: 29mph
Location:  38.333°N, 92.5524°W
Report Text: KAIZ 241555Z AUTO 26014G25KT 10SM SCT035 04/M04 A2971 RMK AO1
Loading
Personal Weather Stations






























Interactive Weather Map New forecast layout! Learn more

10-Day Weather Forecast

Advertisements
Track Severe Weather on mobile